sensor_id;sensor_type;location;lat;lon;timestamp;temperature;humidity
65826;DHT22;52586;-43.152;172.732;2023-01-24T00:00:13;21.80;53.40
65826;DHT22;52586;-43.152;172.732;2023-01-24T00:02:44;21.80;53.40
65826;DHT22;52586;-43.152;172.732;2023-01-24T00:05:14;21.80;53.40
65826;DHT22;52586;-43.152;172.732;2023-01-24T00:07:47;21.80;53.40
65826;DHT22;52586;-43.152;172.732;2023-01-24T00:10:18;21.80;53.50
65826;DHT22;52586;-43.152;172.732;2023-01-24T00:12:48;21.80;53.40
65826;DHT22;52586;-43.152;172.732;2023-01-24T00:15:19;21.80;53.40
65826;DHT22;52586;-43.152;172.732;2023-01-24T00:17:50;21.80;53.40
65826;DHT22;52586;-43.152;172.732;2023-01-24T00:20:21;21.80;53.40
65826;DHT22;52586;-43.152;172.732;2023-01-24T00:22:53;21.80;53.40
65826;DHT22;52586;-43.152;172.732;2023-01-24T00:25:24;21.80;53.40
65826;DHT22;52586;-43.152;172.732;2023-01-24T00:27:55;21.80;53.30
65826;DHT22;52586;-43.152;172.732;2023-01-24T00:30:26;21.80;53.30
65826;DHT22;52586;-43.152;172.732;2023-01-24T00:32:57;21.80;53.40
65826;DHT22;52586;-43.152;172.732;2023-01-24T00:35:28;21.80;53.40
65826;DHT22;52586;-43.152;172.732;2023-01-24T00:38:00;21.80;53.40
65826;DHT22;52586;-43.152;172.732;2023-01-24T00:40:31;21.80;53.40
65826;DHT22;52586;-43.152;172.732;2023-01-24T00:43:02;21.80;53.40
65826;DHT22;52586;-43.152;172.732;2023-01-24T00:45:37;21.80;53.40
65826;DHT22;52586;-43.152;172.732;2023-01-24T00:48:08;21.80;53.40
65826;DHT22;52586;-43.152;172.732;2023-01-24T00:50:39;21.80;53.40
65826;DHT22;52586;-43.152;172.732;2023-01-24T00:53:12;21.80;53.40
65826;DHT22;52586;-43.152;172.732;2023-01-24T00:55:43;21.80;53.40
65826;DHT22;52586;-43.152;172.732;2023-01-24T00:58:14;21.80;53.40
65826;DHT22;52586;-43.152;172.732;2023-01-24T01:00:45;21.80;53.40
65826;DHT22;52586;-43.152;172.732;2023-01-24T01:03:19;21.80;53.50
65826;DHT22;52586;-43.152;172.732;2023-01-24T01:05:56;21.80;53.40
65826;DHT22;52586;-43.152;172.732;2023-01-24T01:08:29;21.80;53.40
65826;DHT22;52586;-43.152;172.732;2023-01-24T01:11:00;21.90;53.50
65826;DHT22;52586;-43.152;172.732;2023-01-24T01:13:31;21.80;53.50
65826;DHT22;52586;-43.152;172.732;2023-01-24T01:16:05;21.90;53.50
65826;DHT22;52586;-43.152;172.732;2023-01-24T01:18:37;21.90;53.50
65826;DHT22;52586;-43.152;172.732;2023-01-24T01:21:09;21.90;53.50
65826;DHT22;52586;-43.152;172.732;2023-01-24T01:23:45;21.90;53.50
65826;DHT22;52586;-43.152;172.732;2023-01-24T01:26:18;21.90;53.50
65826;DHT22;52586;-43.152;172.732;2023-01-24T01:28:49;21.90;53.50
65826;DHT22;52586;-43.152;172.732;2023-01-24T01:31:20;21.90;53.50
65826;DHT22;52586;-43.152;172.732;2023-01-24T01:33:50;21.90;53.50
65826;DHT22;52586;-43.152;172.732;2023-01-24T01:36:21;21.90;53.50
65826;DHT22;52586;-43.152;172.732;2023-01-24T01:38:53;21.90;53.50
65826;DHT22;52586;-43.152;172.732;2023-01-24T01:41:24;21.90;53.50
65826;DHT22;52586;-43.152;172.732;2023-01-24T01:43:55;21.90;53.40
65826;DHT22;52586;-43.152;172.732;2023-01-24T01:46:43;21.90;53.40
65826;DHT22;52586;-43.152;172.732;2023-01-24T01:49:19;21.90;53.50
65826;DHT22;52586;-43.152;172.732;2023-01-24T01:51:53;21.90;53.40
65826;DHT22;52586;-43.152;172.732;2023-01-24T01:54:31;21.90;53.40
65826;DHT22;52586;-43.152;172.732;2023-01-24T01:57:06;21.90;53.50
65826;DHT22;52586;-43.152;172.732;2023-01-24T01:59:40;21.90;53.50
65826;DHT22;52586;-43.152;172.732;2023-01-24T02:02:16;21.90;53.50
65826;DHT22;52586;-43.152;172.732;2023-01-24T02:04:51;21.90;53.40
65826;DHT22;52586;-43.152;172.732;2023-01-24T02:07:24;22.00;53.40
65826;DHT22;52586;-43.152;172.732;2023-01-24T02:09:59;22.00;53.40
65826;DHT22;52586;-43.152;172.732;2023-01-24T02:12:31;22.00;53.40
65826;DHT22;52586;-43.152;172.732;2023-01-24T02:15:05;22.00;53.40
65826;DHT22;52586;-43.152;172.732;2023-01-24T02:17:52;22.00;53.30
65826;DHT22;52586;-43.152;172.732;2023-01-24T02:20:36;22.00;53.30
65826;DHT22;52586;-43.152;172.732;2023-01-24T02:23:20;22.00;53.30
65826;DHT22;52586;-43.152;172.732;2023-01-24T02:26:05;22.00;53.30
65826;DHT22;52586;-43.152;172.732;2023-01-24T02:28:37;22.00;53.40
65826;DHT22;52586;-43.152;172.732;2023-01-24T02:31:08;22.00;53.50
65826;DHT22;52586;-43.152;172.732;2023-01-24T02:33:38;22.00;53.50
65826;DHT22;52586;-43.152;172.732;2023-01-24T02:36:16;21.90;53.50
65826;DHT22;52586;-43.152;172.732;2023-01-24T02:38:53;21.90;53.60
65826;DHT22;52586;-43.152;172.732;2023-01-24T02:41:29;22.00;53.70
65826;DHT22;52586;-43.152;172.732;2023-01-24T02:44:03;21.90;53.60
65826;DHT22;52586;-43.152;172.732;2023-01-24T02:46:36;21.90;53.70
65826;DHT22;52586;-43.152;172.732;2023-01-24T02:49:08;21.90;53.60
65826;DHT22;52586;-43.152;172.732;2023-01-24T02:51:39;21.90;53.60
65826;DHT22;52586;-43.152;172.732;2023-01-24T02:54:26;21.90;53.60
65826;DHT22;52586;-43.152;172.732;2023-01-24T02:56:58;21.90;53.50
65826;DHT22;52586;-43.152;172.732;2023-01-24T02:59:44;22.00;53.60
65826;DHT22;52586;-43.152;172.732;2023-01-24T03:02:15;22.00;53.50
65826;DHT22;52586;-43.152;172.732;2023-01-24T03:04:46;22.00;53.60
65826;DHT22;52586;-43.152;172.732;2023-01-24T03:07:17;22.00;53.60
65826;DHT22;52586;-43.152;172.732;2023-01-24T03:09:47;21.90;53.60
65826;DHT22;52586;-43.152;172.732;2023-01-24T03:12:20;21.90;53.60
65826;DHT22;52586;-43.152;172.732;2023-01-24T03:15:07;21.90;53.60
65826;DHT22;52586;-43.152;172.732;2023-01-24T03:17:58;21.90;53.60
65826;DHT22;52586;-43.152;172.732;2023-01-24T03:20:48;21.90;53.60
65826;DHT22;52586;-43.152;172.732;2023-01-24T03:23:34;21.90;53.60
65826;DHT22;52586;-43.152;172.732;2023-01-24T03:26:21;21.90;53.70
65826;DHT22;52586;-43.152;172.732;2023-01-24T03:29:09;21.90;53.70
65826;DHT22;52586;-43.152;172.732;2023-01-24T03:31:56;21.90;53.60
65826;DHT22;52586;-43.152;172.732;2023-01-24T03:34:43;22.00;53.60
65826;DHT22;52586;-43.152;172.732;2023-01-24T03:37:19;22.00;54.20
65826;DHT22;52586;-43.152;172.732;2023-01-24T03:40:13;22.00;53.50
65826;DHT22;52586;-43.152;172.732;2023-01-24T03:42:43;22.00;53.50
65826;DHT22;52586;-43.152;172.732;2023-01-24T03:45:22;22.00;53.50
65826;DHT22;52586;-43.152;172.732;2023-01-24T03:47:54;22.00;53.50
65826;DHT22;52586;-43.152;172.732;2023-01-24T03:50:27;22.00;53.50
65826;DHT22;52586;-43.152;172.732;2023-01-24T03:53:14;22.00;53.50
65826;DHT22;52586;-43.152;172.732;2023-01-24T03:55:46;22.00;53.50
65826;DHT22;52586;-43.152;172.732;2023-01-24T03:58:17;22.00;53.50
65826;DHT22;52586;-43.152;172.732;2023-01-24T04:00:49;21.90;53.50
65826;DHT22;52586;-43.152;172.732;2023-01-24T04:03:21;22.00;53.50
65826;DHT22;52586;-43.152;172.732;2023-01-24T04:05:52;22.00;53.50
65826;DHT22;52586;-43.152;172.732;2023-01-24T04:08:23;22.00;53.40
65826;DHT22;52586;-43.152;172.732;2023-01-24T04:10:55;22.00;53.50
65826;DHT22;52586;-43.152;172.732;2023-01-24T04:13:26;22.00;53.40
65826;DHT22;52586;-43.152;172.732;2023-01-24T04:15:59;22.00;53.30
65826;DHT22;52586;-43.152;172.732;2023-01-24T04:18:29;22.00;53.30
65826;DHT22;52586;-43.152;172.732;2023-01-24T04:21:02;22.00;53.20
65826;DHT22;52586;-43.152;172.732;2023-01-24T04:23:33;22.00;53.20
65826;DHT22;52586;-43.152;172.732;2023-01-24T04:26:04;22.00;53.20
65826;DHT22;52586;-43.152;172.732;2023-01-24T04:28:34;22.00;53.20
65826;DHT22;52586;-43.152;172.732;2023-01-24T04:31:08;21.90;53.20
65826;DHT22;52586;-43.152;172.732;2023-01-24T04:33:38;22.00;53.20
65826;DHT22;52586;-43.152;172.732;2023-01-24T04:36:09;22.00;53.20
65826;DHT22;52586;-43.152;172.732;2023-01-24T04:38:43;22.00;53.20
65826;DHT22;52586;-43.152;172.732;2023-01-24T04:41:13;22.00;53.20
65826;DHT22;52586;-43.152;172.732;2023-01-24T04:43:44;22.00;53.20
65826;DHT22;52586;-43.152;172.732;2023-01-24T04:46:17;22.00;53.20
65826;DHT22;52586;-43.152;172.732;2023-01-24T04:48:47;22.00;53.10
65826;DHT22;52586;-43.152;172.732;2023-01-24T04:51:18;22.00;53.10
65826;DHT22;52586;-43.152;172.732;2023-01-24T04:53:49;22.00;53.10
65826;DHT22;52586;-43.152;172.732;2023-01-24T04:56:19;22.00;53.00
65826;DHT22;52586;-43.152;172.732;2023-01-24T04:58:50;22.00;53.00
65826;DHT22;52586;-43.152;172.732;2023-01-24T05:01:22;22.00;53.00
65826;DHT22;52586;-43.152;172.732;2023-01-24T05:03:53;22.00;53.00
65826;DHT22;52586;-43.152;172.732;2023-01-24T05:06:26;22.00;53.00
65826;DHT22;52586;-43.152;172.732;2023-01-24T05:08:57;22.00;52.90
65826;DHT22;52586;-43.152;172.732;2023-01-24T05:11:28;22.00;52.90
65826;DHT22;52586;-43.152;172.732;2023-01-24T05:13:59;22.00;52.90
65826;DHT22;52586;-43.152;172.732;2023-01-24T05:16:31;21.90;52.90
65826;DHT22;52586;-43.152;172.732;2023-01-24T05:19:02;21.90;52.80
65826;DHT22;52586;-43.152;172.732;2023-01-24T05:21:33;21.90;52.80
65826;DHT22;52586;-43.152;172.732;2023-01-24T05:24:03;21.90;52.80
65826;DHT22;52586;-43.152;172.732;2023-01-24T05:26:34;21.90;52.80
65826;DHT22;52586;-43.152;172.732;2023-01-24T05:29:05;21.90;52.80
65826;DHT22;52586;-43.152;172.732;2023-01-24T05:31:37;21.90;52.80
65826;DHT22;52586;-43.152;172.732;2023-01-24T05:34:08;21.90;52.80
65826;DHT22;52586;-43.152;172.732;2023-01-24T05:36:39;21.90;52.80
65826;DHT22;52586;-43.152;172.732;2023-01-24T05:39:09;21.90;52.80
65826;DHT22;52586;-43.152;172.732;2023-01-24T05:41:42;21.90;52.80
65826;DHT22;52586;-43.152;172.732;2023-01-24T05:44:13;21.90;52.80
65826;DHT22;52586;-43.152;172.732;2023-01-24T05:46:45;21.90;52.90
65826;DHT22;52586;-43.152;172.732;2023-01-24T05:49:16;21.90;52.90
65826;DHT22;52586;-43.152;172.732;2023-01-24T05:51:47;21.90;52.90
65826;DHT22;52586;-43.152;172.732;2023-01-24T05:54:17;21.90;52.90
65826;DHT22;52586;-43.152;172.732;2023-01-24T05:56:48;21.90;52.90
65826;DHT22;52586;-43.152;172.732;2023-01-24T05:59:19;21.90;52.90
65826;DHT22;52586;-43.152;172.732;2023-01-24T06:01:51;21.90;52.90
65826;DHT22;52586;-43.152;172.732;2023-01-24T06:04:22;21.90;52.90
65826;DHT22;52586;-43.152;172.732;2023-01-24T06:07:02;21.80;52.90
65826;DHT22;52586;-43.152;172.732;2023-01-24T06:09:34;21.90;52.90
65826;DHT22;52586;-43.152;172.732;2023-01-24T06:12:05;21.90;52.90
65826;DHT22;52586;-43.152;172.732;2023-01-24T06:14:36;21.80;52.80
65826;DHT22;52586;-43.152;172.732;2023-01-24T06:17:08;21.90;52.90
65826;DHT22;52586;-43.152;172.732;2023-01-24T06:19:39;21.90;52.90
65826;DHT22;52586;-43.152;172.732;2023-01-24T06:22:22;21.90;52.90
65826;DHT22;52586;-43.152;172.732;2023-01-24T06:24:56;21.90;52.90
65826;DHT22;52586;-43.152;172.732;2023-01-24T06:27:26;21.80;52.80
65826;DHT22;52586;-43.152;172.732;2023-01-24T06:29:57;21.80;52.80
65826;DHT22;52586;-43.152;172.732;2023-01-24T06:32:35;21.80;52.80
65826;DHT22;52586;-43.152;172.732;2023-01-24T06:35:17;21.80;52.90
65826;DHT22;52586;-43.152;172.732;2023-01-24T06:37:51;21.80;52.80
65826;DHT22;52586;-43.152;172.732;2023-01-24T06:40:23;21.80;52.80
65826;DHT22;52586;-43.152;172.732;2023-01-24T06:42:54;21.90;52.90
65826;DHT22;52586;-43.152;172.732;2023-01-24T06:45:25;21.80;52.80
65826;DHT22;52586;-43.152;172.732;2023-01-24T06:47:57;21.90;52.80
65826;DHT22;52586;-43.152;172.732;2023-01-24T06:50:28;21.90;52.90
65826;DHT22;52586;-43.152;172.732;2023-01-24T06:53:00;21.90;52.80
65826;DHT22;52586;-43.152;172.732;2023-01-24T06:55:31;21.90;52.80
65826;DHT22;52586;-43.152;172.732;2023-01-24T06:58:03;21.90;52.80
65826;DHT22;52586;-43.152;172.732;2023-01-24T07:00:33;21.80;52.80
65826;DHT22;52586;-43.152;172.732;2023-01-24T07:03:07;21.80;52.80
65826;DHT22;52586;-43.152;172.732;2023-01-24T07:05:38;21.80;52.80
65826;DHT22;52586;-43.152;172.732;2023-01-24T07:08:09;21.80;52.70
65826;DHT22;52586;-43.152;172.732;2023-01-24T07:10:40;21.80;52.80
65826;DHT22;52586;-43.152;172.732;2023-01-24T07:13:11;21.80;52.80
65826;DHT22;52586;-43.152;172.732;2023-01-24T07:15:42;21.80;52.70
65826;DHT22;52586;-43.152;172.732;2023-01-24T07:18:15;21.80;52.70
65826;DHT22;52586;-43.152;172.732;2023-01-24T07:20:47;21.80;52.70
65826;DHT22;52586;-43.152;172.732;2023-01-24T07:23:22;21.80;52.70
65826;DHT22;52586;-43.152;172.732;2023-01-24T07:25:56;21.80;52.70
65826;DHT22;52586;-43.152;172.732;2023-01-24T07:28:26;21.80;52.70
65826;DHT22;52586;-43.152;172.732;2023-01-24T07:30:57;21.80;52.70
65826;DHT22;52586;-43.152;172.732;2023-01-24T07:33:30;21.80;52.70
65826;DHT22;52586;-43.152;172.732;2023-01-24T07:36:00;21.80;52.70
65826;DHT22;52586;-43.152;172.732;2023-01-24T07:38:31;21.80;52.70
65826;DHT22;52586;-43.152;172.732;2023-01-24T07:41:07;21.80;52.70
65826;DHT22;52586;-43.152;172.732;2023-01-24T07:43:38;21.80;52.70
65826;DHT22;52586;-43.152;172.732;2023-01-24T07:46:09;21.80;52.70
65826;DHT22;52586;-43.152;172.732;2023-01-24T07:48:41;21.80;52.70
65826;DHT22;52586;-43.152;172.732;2023-01-24T07:51:12;21.80;52.70
65826;DHT22;52586;-43.152;172.732;2023-01-24T07:53:43;21.80;52.70
65826;DHT22;52586;-43.152;172.732;2023-01-24T07:56:13;21.80;52.70
65826;DHT22;52586;-43.152;172.732;2023-01-24T07:58:45;21.80;52.60
65826;DHT22;52586;-43.152;172.732;2023-01-24T08:01:17;21.80;52.70
65826;DHT22;52586;-43.152;172.732;2023-01-24T08:03:52;21.80;52.60
65826;DHT22;52586;-43.152;172.732;2023-01-24T08:06:23;21.80;52.60
65826;DHT22;52586;-43.152;172.732;2023-01-24T08:08:54;21.80;52.60
65826;DHT22;52586;-43.152;172.732;2023-01-24T08:11:25;21.80;52.60
65826;DHT22;52586;-43.152;172.732;2023-01-24T08:13:56;21.80;52.70
65826;DHT22;52586;-43.152;172.732;2023-01-24T08:16:26;21.80;52.70
65826;DHT22;52586;-43.152;172.732;2023-01-24T08:18:59;21.80;52.70
65826;DHT22;52586;-43.152;172.732;2023-01-24T08:21:30;21.80;52.70
65826;DHT22;52586;-43.152;172.732;2023-01-24T08:24:00;21.80;52.70
65826;DHT22;52586;-43.152;172.732;2023-01-24T08:26:31;21.80;52.70
65826;DHT22;52586;-43.152;172.732;2023-01-24T08:29:02;21.80;52.70
65826;DHT22;52586;-43.152;172.732;2023-01-24T08:31:33;21.80;52.60
65826;DHT22;52586;-43.152;172.732;2023-01-24T08:34:05;21.80;52.60
65826;DHT22;52586;-43.152;172.732;2023-01-24T08:36:36;21.80;52.60
65826;DHT22;52586;-43.152;172.732;2023-01-24T08:39:07;21.80;52.60
65826;DHT22;52586;-43.152;172.732;2023-01-24T08:41:37;21.80;52.60
65826;DHT22;52586;-43.152;172.732;2023-01-24T08:44:09;21.80;52.60
65826;DHT22;52586;-43.152;172.732;2023-01-24T08:46:39;21.80;52.60
65826;DHT22;52586;-43.152;172.732;2023-01-24T08:49:13;21.80;52.50
65826;DHT22;52586;-43.152;172.732;2023-01-24T08:51:43;21.80;52.60
65826;DHT22;52586;-43.152;172.732;2023-01-24T08:54:15;21.80;52.60
65826;DHT22;52586;-43.152;172.732;2023-01-24T08:56:46;21.80;52.60
65826;DHT22;52586;-43.152;172.732;2023-01-24T08:59:16;21.80;52.60
65826;DHT22;52586;-43.152;172.732;2023-01-24T09:01:47;21.80;53.20
65826;DHT22;52586;-43.152;172.732;2023-01-24T09:04:19;21.80;52.60
65826;DHT22;52586;-43.152;172.732;2023-01-24T09:06:52;21.80;52.50
65826;DHT22;52586;-43.152;172.732;2023-01-24T09:09:23;21.70;52.50
65826;DHT22;52586;-43.152;172.732;2023-01-24T09:11:54;21.80;52.50
65826;DHT22;52586;-43.152;172.732;2023-01-24T09:14:24;21.70;52.50
65826;DHT22;52586;-43.152;172.732;2023-01-24T09:16:55;21.80;52.50
65826;DHT22;52586;-43.152;172.732;2023-01-24T09:19:28;21.70;52.50
65826;DHT22;52586;-43.152;172.732;2023-01-24T09:21:59;21.70;52.50
65826;DHT22;52586;-43.152;172.732;2023-01-24T09:24:29;21.70;52.50
65826;DHT22;52586;-43.152;172.732;2023-01-24T09:27:00;21.70;52.50
65826;DHT22;52586;-43.152;172.732;2023-01-24T09:29:31;21.70;52.50
65826;DHT22;52586;-43.152;172.732;2023-01-24T09:32:01;21.70;52.50
65826;DHT22;52586;-43.152;172.732;2023-01-24T09:34:34;21.70;52.50
65826;DHT22;52586;-43.152;172.732;2023-01-24T09:37:04;21.70;52.50
65826;DHT22;52586;-43.152;172.732;2023-01-24T09:39:35;21.70;52.50
65826;DHT22;52586;-43.152;172.732;2023-01-24T09:42:12;21.70;52.50
65826;DHT22;52586;-43.152;172.732;2023-01-24T09:44:46;21.70;52.60
65826;DHT22;52586;-43.152;172.732;2023-01-24T09:47:21;21.70;52.60
65826;DHT22;52586;-43.152;172.732;2023-01-24T09:49:57;21.70;52.60
65826;DHT22;52586;-43.152;172.732;2023-01-24T09:52:33;21.70;52.60
65826;DHT22;52586;-43.152;172.732;2023-01-24T09:55:10;21.70;52.50
65826;DHT22;52586;-43.152;172.732;2023-01-24T09:57:49;21.70;52.50
65826;DHT22;52586;-43.152;172.732;2023-01-24T10:00:26;21.70;52.50
65826;DHT22;52586;-43.152;172.732;2023-01-24T10:02:59;21.70;52.60
65826;DHT22;52586;-43.152;172.732;2023-01-24T10:05:34;21.70;52.60
65826;DHT22;52586;-43.152;172.732;2023-01-24T10:08:12;21.70;52.60
65826;DHT22;52586;-43.152;172.732;2023-01-24T10:10:49;21.70;52.60
65826;DHT22;52586;-43.152;172.732;2023-01-24T10:19:42;21.70;52.60
65826;DHT22;52586;-43.152;172.732;2023-01-24T10:22:30;21.70;52.60
65826;DHT22;52586;-43.152;172.732;2023-01-24T10:25:06;21.70;52.50
65826;DHT22;52586;-43.152;172.732;2023-01-24T10:27:43;21.70;52.50
65826;DHT22;52586;-43.152;172.732;2023-01-24T10:30:17;21.70;52.50
65826;DHT22;52586;-43.152;172.732;2023-01-24T10:32:50;21.70;52.50
65826;DHT22;52586;-43.152;172.732;2023-01-24T10:35:26;21.70;52.50
65826;DHT22;52586;-43.152;172.732;2023-01-24T10:38:05;21.70;52.50
65826;DHT22;52586;-43.152;172.732;2023-01-24T10:40:50;21.70;52.60
65826;DHT22;52586;-43.152;172.732;2023-01-24T10:43:23;21.60;52.50
65826;DHT22;52586;-43.152;172.732;2023-01-24T10:46:06;21.70;52.60
65826;DHT22;52586;-43.152;172.732;2023-01-24T10:48:44;21.60;52.50
65826;DHT22;52586;-43.152;172.732;2023-01-24T10:51:17;21.60;52.50
65826;DHT22;52586;-43.152;172.732;2023-01-24T10:53:50;21.60;52.50
65826;DHT22;52586;-43.152;172.732;2023-01-24T10:56:22;21.60;52.50
65826;DHT22;52586;-43.152;172.732;2023-01-24T10:58:59;21.60;52.50
65826;DHT22;52586;-43.152;172.732;2023-01-24T11:01:35;21.60;52.50
65826;DHT22;52586;-43.152;172.732;2023-01-24T11:04:25;21.60;52.50
65826;DHT22;52586;-43.152;172.732;2023-01-24T11:06:56;21.60;52.50
65826;DHT22;52586;-43.152;172.732;2023-01-24T11:09:32;21.60;52.50
65826;DHT22;52586;-43.152;172.732;2023-01-24T11:12:04;21.60;52.50
65826;DHT22;52586;-43.152;172.732;2023-01-24T11:14:35;21.60;52.50
65826;DHT22;52586;-43.152;172.732;2023-01-24T11:17:32;21.60;52.50
65826;DHT22;52586;-43.152;172.732;2023-01-24T11:20:15;21.60;52.50
65826;DHT22;52586;-43.152;172.732;2023-01-24T11:22:50;21.60;52.50
65826;DHT22;52586;-43.152;172.732;2023-01-24T11:25:23;21.60;52.40
65826;DHT22;52586;-43.152;172.732;2023-01-24T11:27:54;21.60;52.40
65826;DHT22;52586;-43.152;172.732;2023-01-24T11:30:24;21.60;52.50
65826;DHT22;52586;-43.152;172.732;2023-01-24T11:33:12;21.60;52.50
65826;DHT22;52586;-43.152;172.732;2023-01-24T11:35:48;21.60;52.50
65826;DHT22;52586;-43.152;172.732;2023-01-24T11:38:28;21.60;52.40
65826;DHT22;52586;-43.152;172.732;2023-01-24T11:41:09;21.60;52.50
65826;DHT22;52586;-43.152;172.732;2023-01-24T11:43:54;21.60;52.40
65826;DHT22;52586;-43.152;172.732;2023-01-24T11:46:46;21.60;52.50
65826;DHT22;52586;-43.152;172.732;2023-01-24T11:49:41;21.60;52.40
65826;DHT22;52586;-43.152;172.732;2023-01-24T11:52:24;21.60;52.40
65826;DHT22;52586;-43.152;172.732;2023-01-24T11:55:07;21.60;52.30
65826;DHT22;52586;-43.152;172.732;2023-01-24T11:57:48;21.60;52.30
65826;DHT22;52586;-43.152;172.732;2023-01-24T12:00:29;21.60;52.40
65826;DHT22;52586;-43.152;172.732;2023-01-24T12:03:26;21.60;52.40
65826;DHT22;52586;-43.152;172.732;2023-01-24T12:06:17;21.50;52.40
65826;DHT22;52586;-43.152;172.732;2023-01-24T12:09:01;21.50;52.30
65826;DHT22;52586;-43.152;172.732;2023-01-24T12:11:36;21.50;52.30
65826;DHT22;52586;-43.152;172.732;2023-01-24T12:17:14;21.50;52.40
65826;DHT22;52586;-43.152;172.732;2023-01-24T12:19:59;21.50;52.30
65826;DHT22;52586;-43.152;172.732;2023-01-24T12:22:33;21.50;52.40
65826;DHT22;52586;-43.152;172.732;2023-01-24T12:25:20;21.50;52.30
65826;DHT22;52586;-43.152;172.732;2023-01-24T12:27:54;21.50;52.30
65826;DHT22;52586;-43.152;172.732;2023-01-24T12:30:31;21.50;52.30
65826;DHT22;52586;-43.152;172.732;2023-01-24T12:33:10;21.50;52.30
65826;DHT22;52586;-43.152;172.732;2023-01-24T12:35:45;21.50;52.30
65826;DHT22;52586;-43.152;172.732;2023-01-24T12:38:20;21.50;52.30
65826;DHT22;52586;-43.152;172.732;2023-01-24T12:41:03;21.50;52.30
65826;DHT22;52586;-43.152;172.732;2023-01-24T12:43:48;21.50;52.30
65826;DHT22;52586;-43.152;172.732;2023-01-24T12:46:27;21.50;52.30
65826;DHT22;52586;-43.152;172.732;2023-01-24T12:49:07;21.50;52.30
65826;DHT22;52586;-43.152;172.732;2023-01-24T12:51:44;21.50;52.30
65826;DHT22;52586;-43.152;172.732;2023-01-24T12:54:19;21.50;52.30
65826;DHT22;52586;-43.152;172.732;2023-01-24T12:56:56;21.50;52.30
65826;DHT22;52586;-43.152;172.732;2023-01-24T12:59:29;21.50;52.30
65826;DHT22;52586;-43.152;172.732;2023-01-24T13:05:29;21.50;52.30
65826;DHT22;52586;-43.152;172.732;2023-01-24T13:08:13;21.50;52.30
65826;DHT22;52586;-43.152;172.732;2023-01-24T13:10:53;21.40;52.20
65826;DHT22;52586;-43.152;172.732;2023-01-24T13:13:29;21.40;52.20
65826;DHT22;52586;-43.152;172.732;2023-01-24T13:16:14;21.40;52.20
65826;DHT22;52586;-43.152;172.732;2023-01-24T13:18:57;21.40;52.20
65826;DHT22;52586;-43.152;172.732;2023-01-24T13:21:37;21.40;52.30
65826;DHT22;52586;-43.152;172.732;2023-01-24T13:24:33;21.40;52.20
65826;DHT22;52586;-43.152;172.732;2023-01-24T13:27:25;21.40;52.30
65826;DHT22;52586;-43.152;172.732;2023-01-24T13:30:24;21.40;52.30
65826;DHT22;52586;-43.152;172.732;2023-01-24T13:32:59;21.40;52.20
65826;DHT22;52586;-43.152;172.732;2023-01-24T13:35:31;21.40;52.20
65826;DHT22;52586;-43.152;172.732;2023-01-24T13:38:06;21.40;52.30
65826;DHT22;52586;-43.152;172.732;2023-01-24T13:41:00;21.40;52.30
65826;DHT22;52586;-43.152;172.732;2023-01-24T13:43:54;21.40;52.30
65826;DHT22;52586;-43.152;172.732;2023-01-24T13:49:37;21.40;52.20
65826;DHT22;52586;-43.152;172.732;2023-01-24T13:52:36;21.40;52.20
65826;DHT22;52586;-43.152;172.732;2023-01-24T13:58:24;21.30;52.20
65826;DHT22;52586;-43.152;172.732;2023-01-24T14:00:57;21.30;52.20
65826;DHT22;52586;-43.152;172.732;2023-01-24T14:03:36;21.30;52.20
65826;DHT22;52586;-43.152;172.732;2023-01-24T14:06:12;21.30;52.20
65826;DHT22;52586;-43.152;172.732;2023-01-24T14:08:56;21.30;52.20
65826;DHT22;52586;-43.152;172.732;2023-01-24T14:11:36;21.30;52.20
65826;DHT22;52586;-43.152;172.732;2023-01-24T14:14:27;21.30;52.20
65826;DHT22;52586;-43.152;172.732;2023-01-24T14:19:56;21.30;52.20
65826;DHT22;52586;-43.152;172.732;2023-01-24T14:22:36;21.30;52.20
65826;DHT22;52586;-43.152;172.732;2023-01-24T14:28:31;21.30;52.20
65826;DHT22;52586;-43.152;172.732;2023-01-24T14:31:06;21.20;52.10
65826;DHT22;52586;-43.152;172.732;2023-01-24T14:33:51;21.30;52.20
65826;DHT22;52586;-43.152;172.732;2023-01-24T14:36:28;21.20;52.10
65826;DHT22;52586;-43.152;172.732;2023-01-24T14:39:20;21.20;52.20
65826;DHT22;52586;-43.152;172.732;2023-01-24T14:41:52;21.20;52.20
65826;DHT22;52586;-43.152;172.732;2023-01-24T14:44:27;21.20;52.20
65826;DHT22;52586;-43.152;172.732;2023-01-24T14:47:00;21.20;52.20
65826;DHT22;52586;-43.152;172.732;2023-01-24T14:49:32;21.20;52.20
65826;DHT22;52586;-43.152;172.732;2023-01-24T14:52:16;21.20;52.20
65826;DHT22;52586;-43.152;172.732;2023-01-24T14:54:47;21.20;52.20
65826;DHT22;52586;-43.152;172.732;2023-01-24T14:57:25;21.20;52.10
65826;DHT22;52586;-43.152;172.732;2023-01-24T15:00:14;21.20;52.10
65826;DHT22;52586;-43.152;172.732;2023-01-24T15:02:52;21.20;52.20
65826;DHT22;52586;-43.152;172.732;2023-01-24T15:05:25;21.10;52.10
65826;DHT22;52586;-43.152;172.732;2023-01-24T15:07:58;21.10;52.10
65826;DHT22;52586;-43.152;172.732;2023-01-24T15:10:30;21.10;52.10
65826;DHT22;52586;-43.152;172.732;2023-01-24T15:13:03;21.10;52.10
65826;DHT22;52586;-43.152;172.732;2023-01-24T15:15:38;21.10;52.10
65826;DHT22;52586;-43.152;172.732;2023-01-24T15:18:34;21.10;52.20
65826;DHT22;52586;-43.152;172.732;2023-01-24T15:21:11;21.10;52.20
65826;DHT22;52586;-43.152;172.732;2023-01-24T15:23:49;21.10;52.20
65826;DHT22;52586;-43.152;172.732;2023-01-24T15:26:40;21.10;52.10
65826;DHT22;52586;-43.152;172.732;2023-01-24T15:29:36;21.10;52.10
65826;DHT22;52586;-43.152;172.732;2023-01-24T15:32:36;21.10;52.10
65826;DHT22;52586;-43.152;172.732;2023-01-24T15:35:30;21.10;52.10
65826;DHT22;52586;-43.152;172.732;2023-01-24T15:38:19;21.10;52.10
65826;DHT22;52586;-43.152;172.732;2023-01-24T15:40:59;21.00;52.10
65826;DHT22;52586;-43.152;172.732;2023-01-24T15:43:34;21.00;52.10
65826;DHT22;52586;-43.152;172.732;2023-01-24T15:46:33;21.00;52.10
65826;DHT22;52586;-43.152;172.732;2023-01-24T15:49:28;21.00;52.10
65826;DHT22;52586;-43.152;172.732;2023-01-24T15:52:19;21.00;52.10
65826;DHT22;52586;-43.152;172.732;2023-01-24T15:54:54;21.00;52.10
65826;DHT22;52586;-43.152;172.732;2023-01-24T15:57:28;21.00;52.10
65826;DHT22;52586;-43.152;172.732;2023-01-24T16:00:00;21.00;52.10
65826;DHT22;52586;-43.152;172.732;2023-01-24T16:02:32;20.90;52.10